Sacramento, California
Traffic Map
Current Weather Conditions
Sacramento, California
Clear
Clear
56°
Feels Like: 56°
Wind Chill: 56° Ceiling: Unl
Heat Index: 56° Visibility: 10mi
Dew Point: 47° Wind: 9mph
Humidity: 72% Direction: 150° (SSE)
Pressure: 29.67in Gusts: 0mph
Raw Report DataKSAC 222153Z 15008KT 10SM CLR 13/08 A2967 RMK AO2 LTG DSNT N AND NW SLP048 T01330083
Traffic Incident Summary
Active as of:
Severity:
Category:
InformationThere was an issue retrieving the traffic information for this location. Please try a different location or try again shortly.
Advertisements
Track Severe Weather on mobile